Time;durP1;ratioP1;P1;durP2;ratioP2;P2;SDS_P1;SDS_P2;PMS_P1;PMS_P2;Temp;Humidity;BMP_temperature;BMP_pressure;BME280_temperature;BME280_humidity;BME280_pressure;Samples;Min_cycle;Max_cycle;Signal;HPM_P1;HPM_P2
2023/02/23 00:02:16;;;;;;;25.48;13.75;;;28.40;73.40;;;;;;5085475;28;20312;-60
2023/02/23 00:04:43;;;;;;;29.48;13.60;;;28.30;73.30;;;;;;5085053;28;20028;-55
2023/02/23 00:07:10;;;;;;;25.15;13.73;;;28.30;73.10;;;;;;5085340;28;20095;-57
2023/02/23 00:09:36;;;;;;;24.98;14.00;;;28.40;73.20;;;;;;5085071;28;20024;-60
2023/02/23 00:12:08;;;;;;;25.38;12.70;;;28.40;73.00;;;;;;5084974;28;20212;-56
2023/02/23 00:14:36;;;;;;;19.20;12.80;;;28.30;72.80;;;;;;5085066;28;20051;-57
2023/02/23 00:17:03;;;;;;;18.73;12.77;;;28.30;72.70;;;;;;5085360;28;20309;-59
2023/02/23 00:19:32;;;;;;;28.00;13.15;;;28.30;72.70;;;;;;5084516;28;20074;-58
2023/02/23 00:21:59;;;;;;;21.80;12.95;;;28.30;72.60;;;;;;5085144;28;20039;-60
2023/02/23 00:24:26;;;;;;;18.67;12.25;;;28.20;72.60;;;;;;5084792;28;20338;-57
2023/02/23 00:26:53;;;;;;;20.48;12.57;;;28.20;72.50;;;;;;5084638;28;20032;-56
2023/02/23 00:29:26;;;;;;;19.63;12.18;;;28.20;72.50;;;;;;5084861;28;20091;-59
2023/02/23 00:31:54;;;;;;;19.83;13.05;;;28.20;72.40;;;;;;5084937;28;20028;-54
2023/02/23 00:34:22;;;;;;;18.80;12.57;;;28.10;72.20;;;;;;5085030;28;20103;-57
2023/02/23 00:36:52;;;;;;;21.90;13.05;;;28.10;72.10;;;;;;5084953;28;20028;-56
2023/02/23 00:39:23;;;;;;;18.05;12.25;;;28.10;71.90;;;;;;5085111;28;20028;-55
2023/02/23 00:41:53;;;;;;;24.80;13.13;;;28.10;71.90;;;;;;5084855;28;20087;-54
2023/02/23 00:44:22;;;;;;;19.63;13.50;;;28.10;71.70;;;;;;5084519;28;20055;-54
2023/02/23 00:46:50;;;;;;;18.10;12.55;;;28.10;71.50;;;;;;5084379;28;20043;-55
2023/02/23 00:49:18;;;;;;;17.73;12.90;;;28.10;71.40;;;;;;5084593;28;20067;-53
2023/02/23 00:51:45;;;;;;;17.67;13.38;;;28.00;71.20;;;;;;5084539;28;20043;-56
2023/02/23 00:54:13;;;;;;;20.48;13.68;;;28.00;71.00;;;;;;5084214;28;20020;-54
2023/02/23 00:56:40;;;;;;;16.88;13.48;;;28.00;71.00;;;;;;5084100;28;20037;-55
2023/02/23 00:59:09;;;;;;;14.45;12.98;;;28.00;70.90;;;;;;5084056;28;20044;-53
2023/02/23 01:01:40;;;;;;;16.63;13.75;;;28.00;71.00;;;;;;5084784;28;20245;-56
2023/02/23 01:04:08;;;;;;;18.95;13.57;;;28.00;71.40;;;;;;5084236;28;20322;-57
2023/02/23 01:06:38;;;;;;;23.33;13.48;;;27.90;70.80;;;;;;5083864;28;20039;-54
2023/02/23 01:09:14;;;;;;;20.13;12.95;;;27.90;70.70;;;;;;5066968;28;20071;-53
2023/02/23 01:11:45;;;;;;;16.17;12.77;;;27.90;70.60;;;;;;5083927;28;20021;-59
2023/02/23 01:14:12;;;;;;;20.10;13.60;;;27.90;70.40;;;;;;5084218;28;20032;-54
2023/02/23 01:16:39;;;;;;;20.55;12.65;;;27.90;70.40;;;;;;5084237;28;20020;-55
2023/02/23 01:19:06;;;;;;;21.98;13.13;;;27.90;70.40;;;;;;5083814;28;20067;-54
2023/02/23 01:21:36;;;;;;;41.95;13.93;;;27.90;70.20;;;;;;5083295;28;20082;-54
2023/02/23 01:24:04;;;;;;;22.98;12.57;;;27.90;70.20;;;;;;5073250;28;20028;-52
2023/02/23 01:26:37;;;;;;;16.80;12.32;;;27.90;70.20;;;;;;5075008;28;20281;-48
2023/02/23 01:29:18;;;;;;;19.80;11.98;;;27.90;70.10;;;;;;5063706;28;20048;-47
2023/02/23 01:31:49;;;;;;;17.17;11.82;;;27.90;70.00;;;;;;5077803;28;20104;-54
2023/02/23 01:34:17;;;;;;;14.43;11.20;;;28.00;69.90;;;;;;5078697;28;20032;-50
2023/02/23 01:36:44;;;;;;;14.60;11.70;;;28.00;69.80;;;;;;5078059;28;20029;-50
2023/02/23 01:39:16;;;;;;;13.55;11.20;;;28.00;69.70;;;;;;5074563;28;20104;-53
2023/02/23 01:41:44;;;;;;;16.23;11.18;;;28.00;69.60;;;;;;5072741;28;20093;-55
2023/02/23 01:44:13;;;;;;;17.23;11.00;;;28.00;69.50;;;;;;5079121;28;20032;-52
2023/02/23 01:46:44;;;;;;;12.70;10.75;;;28.00;69.50;;;;;;5081698;28;20020;-54
2023/02/23 01:49:20;;;;;;;15.82;11.07;;;28.00;69.40;;;;;;5067315;28;20096;-53
2023/02/23 01:51:54;;;;;;;11.45;10.07;;;27.90;69.20;;;;;;5072903;28;20033;-50
2023/02/23 01:54:35;;;;;;;12.10;10.30;;;27.90;69.30;;;;;;5083642;28;20032;-54
2023/02/23 01:57:03;;;;;;;12.30;10.18;;;27.90;69.30;;;;;;5063398;28;20088;-50
2023/02/23 01:59:42;;;;;;;15.10;10.10;;;27.90;69.30;;;;;;5076752;28;20066;-53
2023/02/23 02:02:09;;;;;;;12.98;9.77;;;27.90;69.20;;;;;;5066232;28;20309;-46
2023/02/23 02:04:44;;;;;;;13.65;9.50;;;27.90;69.20;;;;;;5071924;28;20037;-52
2023/02/23 02:07:24;;;;;;;12.38;9.48;;;27.90;69.00;;;;;;5064012;28;20029;-53
2023/02/23 02:12:43;;;;;;;13.40;9.20;;;27.90;68.90;;;;;;5063661;28;20033;-49
2023/02/23 02:15:16;;;;;;;11.68;9.15;;;27.80;68.70;;;;;;5063445;28;20032;-49
2023/02/23 02:17:55;;;;;;;13.82;9.20;;;27.80;68.60;;;;;;5063940;28;20032;-48
2023/02/23 02:20:51;;;;;;;11.25;8.90;;;27.80;68.60;;;;;;5069433;28;20031;-49
2023/02/23 02:23:41;;;;;;;12.15;9.27;;;27.80;68.60;;;;;;5064472;28;20114;-53
2023/02/23 02:26:29;;;;;;;11.18;8.98;;;27.80;68.40;;;;;;5063970;28;20040;-47
2023/02/23 02:29:03;;;;;;;12.48;8.60;;;27.80;68.40;;;;;;5064036;28;20024;-46
2023/02/23 02:31:48;;;;;;;11.90;8.75;;;27.80;68.30;;;;;;5075919;28;20259;-50
2023/02/23 02:34:21;;;;;;;14.38;8.65;;;27.80;68.30;;;;;;5072322;28;20351;-49
2023/02/23 02:37:18;;;;;;;9.43;8.45;;;27.80;68.10;;;;;;5079881;28;20047;-56
2023/02/23 02:40:20;;;;;;;9.70;8.23;;;27.80;67.90;;;;;;5084635;28;20122;-54
2023/02/23 02:43:10;;;;;;;9.80;8.60;;;27.80;67.70;;;;;;5055427;28;20044;-55
2023/02/23 02:45:49;;;;;;;11.30;9.35;;;27.80;67.60;;;;;;5087302;28;20016;-47
2023/02/23 02:48:37;;;;;;;11.30;8.80;;;27.70;67.40;;;;;;5086860;28;20036;-49
2023/02/23 02:51:20;;;;;;;9.93;8.88;;;27.70;67.40;;;;;;5086802;28;20028;-57
2023/02/23 02:54:19;;;;;;;12.77;8.88;;;27.70;67.20;;;;;;5085090;28;20025;-55
2023/02/23 02:56:49;;;;;;;10.98;8.32;;;27.70;67.10;;;;;;5087053;28;20052;-50
2023/02/23 04:18:32;;;;;;;9.25;8.13;;;27.50;66.20;;;;;;5080033;28;20028;-52
2023/02/23 04:20:59;;;;;;;11.15;7.95;;;27.50;66.10;;;;;;5085245;28;20089;-53
2023/02/23 04:23:28;;;;;;;9.45;8.55;;;27.50;65.80;;;;;;5084861;28;20309;-51
2023/02/23 04:25:55;;;;;;;9.52;7.85;;;27.50;65.60;;;;;;5084945;28;20047;-53
2023/02/23 04:28:23;;;;;;;9.20;7.82;;;27.40;65.50;;;;;;5084835;28;20328;-49
2023/02/23 04:30:51;;;;;;;11.38;8.63;;;27.40;65.40;;;;;;5084721;28;20226;-52
2023/02/23 04:33:20;;;;;;;10.52;7.95;;;27.40;65.40;;;;;;5084772;28;20221;-51
2023/02/23 04:35:47;;;;;;;8.50;7.60;;;27.40;65.60;;;;;;5082428;28;20328;-51
2023/02/23 04:38:13;;;;;;;11.40;7.90;;;27.40;65.70;;;;;;5073581;28;20033;-48
2023/02/23 04:40:40;;;;;;;9.73;7.57;;;27.40;65.70;;;;;;5064585;28;20023;-54
2023/02/23 04:43:13;;;;;;;8.65;7.85;;;27.40;65.70;;;;;;5064772;28;20237;-59
2023/02/23 04:45:40;;;;;;;10.20;7.93;;;27.40;65.60;;;;;;5064414;28;20096;-50
2023/02/23 04:48:07;;;;;;;10.60;8.10;;;27.40;65.60;;;;;;5064687;28;20025;-51
2023/02/23 04:50:34;;;;;;;9.32;8.02;;;27.40;65.60;;;;;;5064314;28;20025;-52
2023/02/23 04:53:00;;;;;;;10.73;7.72;;;27.40;65.80;;;;;;5064276;28;20021;-62
2023/02/23 04:55:27;;;;;;;9.75;7.80;;;27.30;65.70;;;;;;5064523;28;20025;-48
2023/02/23 04:57:59;;;;;;;12.35;7.70;;;27.30;65.70;;;;;;5064854;28;20274;-52
2023/02/23 05:00:27;;;;;;;9.80;7.90;;;27.30;65.70;;;;;;5064200;28;20367;-50
2023/02/23 05:02:54;;;;;;;11.30;7.90;;;27.30;65.70;;;;;;5064624;28;20035;-51
2023/02/23 05:05:21;;;;;;;9.18;7.80;;;27.30;65.60;;;;;;5064134;28;20051;-51
2023/02/23 05:07:48;;;;;;;8.23;7.43;;;27.30;65.80;;;;;;5064488;28;20025;-51
2023/02/23 05:10:15;;;;;;;10.10;8.25;;;27.30;65.90;;;;;;5064050;28;20028;-54
2023/02/23 05:12:42;;;;;;;9.27;7.65;;;27.30;65.90;;;;;;5064270;28;20325;-58
2023/02/23 05:15:09;;;;;;;10.93;7.60;;;27.30;65.90;;;;;;5063967;28;20021;-48
2023/02/23 05:17:40;;;;;;;11.70;7.82;;;27.30;65.80;;;;;;5064554;28;20096;-48
2023/02/23 05:20:07;;;;;;;9.05;7.38;;;27.30;65.70;;;;;;5063994;28;20033;-49
2023/02/23 05:22:34;;;;;;;8.27;7.47;;;27.30;65.80;;;;;;5064197;28;20025;-49
2023/02/23 05:25:01;;;;;;;8.32;7.30;;;27.20;65.80;;;;;;5063915;28;20024;-48
2023/02/23 05:27:27;;;;;;;8.60;7.60;;;27.20;65.70;;;;;;5064168;28;20032;-50
2023/02/23 05:29:54;;;;;;;8.65;7.75;;;27.20;65.60;;;;;;5063721;28;20100;-47
2023/02/23 05:32:20;;;;;;;12.10;8.30;;;27.20;65.20;;;;;;5064170;28;20228;-47
2023/02/23 05:34:47;;;;;;;9.07;8.18;;;27.20;65.00;;;;;;5063878;28;20040;-55
2023/02/23 05:37:17;;;;;;;9.20;7.80;;;27.20;64.80;;;;;;5064067;28;20098;-49
2023/02/23 05:39:45;;;;;;;9.93;7.78;;;27.20;64.60;;;;;;5063992;28;20031;-57
2023/02/23 05:42:18;;;;;;;8.25;7.50;;;27.20;64.60;;;;;;5064436;28;20044;-48
2023/02/23 05:44:44;;;;;;;10.90;8.38;;;27.20;64.40;;;;;;5063891;28;20056;-48
2023/02/23 05:47:11;;;;;;;9.10;8.18;;;27.20;64.40;;;;;;5063667;28;20056;-48
2023/02/23 05:49:37;;;;;;;8.40;7.50;;;27.20;64.40;;;;;;5063728;28;20017;-45
2023/02/23 05:52:05;;;;;;;10.88;8.05;;;27.20;64.50;;;;;;5063766;28;20075;-47
2023/02/23 05:54:31;;;;;;;9.48;8.25;;;27.20;64.30;;;;;;5063587;28;20309;-47
2023/02/23 05:56:58;;;;;;;9.32;7.55;;;27.20;64.40;;;;;;5063482;28;20081;-49
2023/02/23 05:59:25;;;;;;;9.10;7.80;;;27.20;64.50;;;;;;5063458;28;20024;-48
2023/02/23 06:01:52;;;;;;;9.98;8.55;;;27.10;64.30;;;;;;5063674;28;20044;-50
2023/02/23 06:04:22;;;;;;;10.95;8.65;;;27.10;64.50;;;;;;5063506;28;20025;-52
2023/02/23 06:06:48;;;;;;;11.90;8.73;;;27.10;64.50;;;;;;5063449;28;20241;-52
2023/02/23 06:09:15;;;;;;;10.23;8.48;;;27.10;64.60;;;;;;5063673;28;20025;-51
2023/02/23 06:11:41;;;;;;;9.45;8.23;;;27.10;64.60;;;;;;5063659;28;20017;-50
2023/02/23 06:14:08;;;;;;;12.05;8.95;;;27.10;64.50;;;;;;5063194;28;20036;-46
2023/02/23 06:16:34;;;;;;;10.48;8.45;;;27.10;64.60;;;;;;5065492;28;20052;-57
2023/02/23 06:19:01;;;;;;;10.15;8.00;;;27.10;64.50;;;;;;5067373;28;20021;-52
2023/02/23 06:21:27;;;;;;;9.18;8.02;;;27.00;64.30;;;;;;5067337;28;20029;-58
2023/02/23 06:23:54;;;;;;;9.18;7.80;;;27.00;64.30;;;;;;5067203;28;20092;-49
2023/02/23 06:26:20;;;;;;;9.85;7.57;;;27.00;64.30;;;;;;5067274;28;20023;-62
2023/02/23 06:28:47;;;;;;;10.50;7.70;;;27.00;64.40;;;;;;5066970;28;20020;-58
2023/02/23 06:31:14;;;;;;;8.70;7.80;;;27.00;64.20;;;;;;5067428;28;20037;-47
2023/02/23 06:33:40;;;;;;;8.75;7.85;;;27.00;64.20;;;;;;5067023;28;20017;-53
2023/02/23 06:36:07;;;;;;;8.73;7.05;;;27.00;64.10;;;;;;5067023;28;20060;-58
2023/02/23 06:38:33;;;;;;;9.02;6.97;;;27.00;64.10;;;;;;5066985;28;20033;-49
2023/02/23 06:41:05;;;;;;;10.13;6.97;;;26.90;63.90;;;;;;5067088;28;20032;-50
2023/02/23 06:43:32;;;;;;;8.25;7.00;;;26.90;63.90;;;;;;5066808;28;20028;-46
2023/02/23 06:45:58;;;;;;;8.43;6.68;;;27.00;63.90;;;;;;5067197;28;20064;-49
2023/02/23 06:48:26;;;;;;;8.32;6.95;;;27.00;64.00;;;;;;5066725;28;20024;-53
2023/02/23 06:50:52;;;;;;;8.18;6.88;;;26.90;63.80;;;;;;5066511;28;20028;-48
2023/02/23 06:53:19;;;;;;;7.53;6.80;;;27.00;63.80;;;;;;5066900;28;20320;-49
2023/02/23 06:55:46;;;;;;;7.63;6.68;;;26.90;63.70;;;;;;5066743;28;20021;-55
2023/02/23 06:58:12;;;;;;;8.23;6.70;;;26.90;64.30;;;;;;5066514;28;20036;-50
2023/02/23 07:00:41;;;;;;;8.38;6.70;;;26.90;63.60;;;;;;5066472;28;20017;-54
2023/02/23 07:03:09;;;;;;;7.60;6.78;;;26.90;63.50;;;;;;5066457;28;20033;-58
2023/02/23 07:05:36;;;;;;;7.95;6.53;;;26.90;63.40;;;;;;5066314;28;20070;-55
2023/02/23 07:08:03;;;;;;;7.55;6.22;;;26.90;64.00;;;;;;5066357;28;20025;-56
2023/02/23 07:10:30;;;;;;;8.50;6.28;;;26.90;63.40;;;;;;5066521;28;20363;-50
2023/02/23 07:12:58;;;;;;;7.88;6.30;;;26.90;63.10;;;;;;5066092;28;20052;-51
2023/02/23 07:15:25;;;;;;;8.57;6.68;;;26.90;63.10;;;;;;5066472;28;20090;-52
2023/02/23 07:17:52;;;;;;;8.85;6.50;;;26.90;63.10;;;;;;5066792;28;20094;-50
2023/02/23 07:20:18;;;;;;;7.32;6.63;;;26.80;62.90;;;;;;5066131;28;20025;-51
2023/02/23 07:22:45;;;;;;;6.60;5.90;;;26.90;62.90;;;;;;5066631;28;20094;-49
2023/02/23 07:25:12;;;;;;;8.48;5.95;;;26.80;62.80;;;;;;5066230;28;20029;-47
2023/02/23 07:27:41;;;;;;;7.93;6.38;;;26.90;62.90;;;;;;5065027;28;20044;-48
2023/02/23 07:30:08;;;;;;;6.55;5.90;;;26.80;62.90;;;;;;5066230;28;20340;-52
2023/02/23 07:32:35;;;;;;;7.63;6.30;;;26.80;62.70;;;;;;5066524;28;20036;-46
2023/02/23 07:35:02;;;;;;;7.00;6.18;;;26.80;62.90;;;;;;5065819;28;20052;-48
2023/02/23 07:37:28;;;;;;;6.75;6.07;;;26.80;63.00;;;;;;5066260;28;20029;-51
2023/02/23 07:39:55;;;;;;;7.63;6.20;;;26.80;63.00;;;;;;5065804;28;20033;-49
2023/02/23 07:42:22;;;;;;;7.18;5.75;;;26.80;63.00;;;;;;5066016;28;20028;-53
2023/02/23 07:44:48;;;;;;;7.03;6.25;;;26.80;63.00;;;;;;5065759;28;20029;-46
2023/02/23 07:47:15;;;;;;;6.30;5.70;;;26.80;62.90;;;;;;5066152;28;20075;-55
2023/02/23 07:49:41;;;;;;;6.88;6.28;;;26.80;62.90;;;;;;5065514;28;20082;-53
2023/02/23 07:52:08;;;;;;;6.72;6.13;;;26.80;62.70;;;;;;5065942;28;20033;-50
2023/02/23 07:54:34;;;;;;;6.97;5.93;;;26.80;62.60;;;;;;5065577;28;20028;-49
2023/02/23 07:57:01;;;;;;;7.28;6.07;;;26.80;62.70;;;;;;5065885;28;20309;-47
2023/02/23 07:59:27;;;;;;;10.27;5.93;;;26.80;62.70;;;;;;5065389;28;20135;-49
2023/02/23 08:01:54;;;;;;;7.72;6.22;;;26.80;62.60;;;;;;5065645;28;20368;-60
2023/02/23 08:04:21;;;;;;;6.60;5.43;;;26.80;62.60;;;;;;5065346;28;20103;-60
2023/02/23 08:06:48;;;;;;;6.97;5.72;;;26.80;62.50;;;;;;5065326;28;20340;-52
2023/02/23 08:09:14;;;;;;;8.35;6.03;;;26.80;62.40;;;;;;5065308;28;20254;-46
2023/02/23 08:11:41;;;;;;;7.40;6.22;;;26.80;62.40;;;;;;5065512;28;20221;-50
2023/02/23 08:14:09;;;;;;;6.60;5.90;;;26.80;62.40;;;;;;5064965;28;20075;-50
2023/02/23 08:16:36;;;;;;;6.70;6.00;;;26.80;62.50;;;;;;5065339;28;20096;-50
2023/02/23 08:19:02;;;;;;;8.05;6.60;;;26.80;62.60;;;;;;5065083;28;20016;-47
2023/02/23 08:21:30;;;;;;;7.60;6.28;;;26.80;62.40;;;;;;5065043;28;20052;-48
2023/02/23 08:23:57;;;;;;;7.78;5.90;;;26.80;62.60;;;;;;5064929;28;20084;-51
2023/02/23 08:26:24;;;;;;;7.85;5.95;;;26.80;62.40;;;;;;5064986;28;20066;-54
2023/02/23 08:28:52;;;;;;;5.97;5.47;;;26.80;62.30;;;;;;5068695;28;20025;-53
2023/02/23 08:31:22;;;;;;;6.90;5.72;;;26.80;62.30;;;;;;5071446;28;20033;-55
2023/02/23 08:33:50;;;;;;;8.57;6.15;;;26.80;62.20;;;;;;5064863;28;20013;-47
2023/02/23 08:36:16;;;;;;;6.88;5.97;;;26.80;62.20;;;;;;5064656;28;20037;-48
2023/02/23 08:38:43;;;;;;;7.88;6.00;;;26.80;62.20;;;;;;5064545;28;20021;-48
2023/02/23 08:41:09;;;;;;;8.43;5.90;;;26.80;62.10;;;;;;5064751;28;20104;-54
2023/02/23 08:43:38;;;;;;;6.57;5.78;;;26.70;61.90;;;;;;5064401;28;20031;-47
2023/02/23 08:46:05;;;;;;;7.55;5.80;;;26.70;62.00;;;;;;5064630;28;20074;-52
2023/02/23 08:48:33;;;;;;;6.43;5.82;;;26.70;61.80;;;;;;5064464;28;20037;-49
2023/02/23 08:51:00;;;;;;;8.23;6.13;;;26.70;61.80;;;;;;5064318;28;20092;-47
2023/02/23 08:53:28;;;;;;;6.88;6.00;;;26.70;61.70;;;;;;5064410;28;20132;-48
2023/02/23 08:56:03;;;;;;;8.10;6.07;;;26.70;61.80;;;;;;5064365;28;20021;-54
2023/02/23 08:58:31;;;;;;;7.50;5.88;;;26.70;61.60;;;;;;5064322;28;20029;-46
2023/02/23 09:00:58;;;;;;;6.65;5.95;;;26.70;61.60;;;;;;5046406;28;20060;-48
2023/02/23 09:03:28;;;;;;;6.32;5.72;;;26.70;61.70;;;;;;5064303;28;20027;-52
2023/02/23 09:05:56;;;;;;;7.03;6.00;;;26.70;61.70;;;;;;5064216;28;20079;-50
2023/02/23 09:08:23;;;;;;;10.43;6.00;;;26.60;61.70;;;;;;5064215;28;20321;-46
2023/02/23 09:10:50;;;;;;;7.88;6.10;;;26.70;61.80;;;;;;5063984;28;20055;-51
2023/02/23 09:13:16;;;;;;;7.50;5.95;;;26.70;61.70;;;;;;5064141;28;20060;-49
2023/02/23 09:15:43;;;;;;;7.53;5.90;;;26.70;61.80;;;;;;5064282;28;20024;-54
2023/02/23 09:18:13;;;;;;;7.30;5.97;;;26.60;61.50;;;;;;5063997;28;20029;-53
2023/02/23 09:20:44;;;;;;;9.00;5.97;;;26.60;61.60;;;;;;5063959;28;20032;-47
2023/02/23 09:23:11;;;;;;;9.35;6.85;;;26.60;61.70;;;;;;5064004;28;20256;-46
2023/02/23 09:25:45;;;;;;;9.35;6.10;;;26.60;62.30;;;;;;5063774;28;20025;-49
2023/02/23 09:28:17;;;;;;;10.45;6.15;;;26.60;61.70;;;;;;5063816;28;20078;-47
2023/02/23 09:30:45;;;;;;;9.50;5.88;;;26.60;61.70;;;;;;5063749;28;20032;-53
2023/02/23 09:33:12;;;;;;;7.13;5.80;;;26.60;61.60;;;;;;5063781;28;20329;-52
2023/02/23 09:35:39;;;;;;;9.68;6.53;;;26.60;61.50;;;;;;5064006;28;20257;-51
2023/02/23 09:38:07;;;;;;;8.73;6.32;;;26.60;61.50;;;;;;5063611;28;20028;-52
2023/02/23 09:40:48;;;;;;;8.35;5.95;;;26.60;61.70;;;;;;5063776;28;20028;-56
2023/02/23 09:43:53;;;;;;;7.90;6.20;;;26.60;61.50;;;;;;5063856;28;20056;-47
2023/02/23 09:47:00;;;;;;;10.68;6.03;;;26.60;61.50;;;;;;5063795;28;20299;-47
2023/02/23 09:49:32;;;;;;;9.45;5.80;;;26.60;61.60;;;;;;5063731;28;20217;-52
2023/02/23 09:52:01;;;;;;;9.25;6.32;;;26.50;61.50;;;;;;5066313;28;20033;-54
2023/02/23 09:54:34;;;;;;;13.23;6.65;;;26.50;61.30;;;;;;5067869;28;20088;-52
2023/02/23 09:57:05;;;;;;;9.68;5.90;;;26.50;61.40;;;;;;5067869;28;20182;-51
2023/02/23 09:59:34;;;;;;;9.73;6.32;;;26.50;61.20;;;;;;5067734;28;20036;-48
2023/02/23 10:02:10;;;;;;;10.35;5.90;;;26.50;61.40;;;;;;5067674;28;20336;-52
2023/02/23 10:04:46;;;;;;;8.20;6.43;;;26.50;61.50;;;;;;5067537;28;20094;-54
2023/02/23 10:07:28;;;;;;;9.18;6.28;;;26.50;61.80;;;;;;5067730;28;20033;-49
2023/02/23 10:10:13;;;;;;;10.43;6.15;;;26.50;61.80;;;;;;5067395;28;20325;-50
2023/02/23 10:13:00;;;;;;;11.40;6.38;;;26.50;62.10;;;;;;5067847;28;20040;-51
2023/02/23 10:16:05;;;;;;;9.25;6.68;;;26.50;62.40;;;;;;5067443;28;20027;-48
2023/02/23 10:19:06;;;;;;;12.00;6.95;;;26.40;62.30;;;;;;5049652;28;20039;-57
2023/02/23 10:21:41;;;;;;;9.27;6.88;;;26.50;62.50;;;;;;5053469;28;20072;-46
2023/02/23 10:24:29;;;;;;;9.35;7.28;;;26.40;62.60;;;;;;5067177;28;20067;-51
2023/02/23 10:27:08;;;;;;;9.13;7.13;;;26.50;62.70;;;;;;5067417;28;20048;-49
2023/02/23 10:29:44;;;;;;;8.32;6.68;;;26.40;62.70;;;;;;5067134;28;20260;-49
2023/02/23 10:32:48;;;;;;;8.38;6.72;;;26.40;62.80;;;;;;5075615;28;20036;-46
2023/02/23 10:35:19;;;;;;;9.38;7.00;;;26.40;62.70;;;;;;5067006;28;20064;-54
2023/02/23 10:37:50;;;;;;;11.50;6.85;;;26.40;62.70;;;;;;5067409;28;20037;-49
2023/02/23 10:40:23;;;;;;;9.45;6.53;;;26.30;62.60;;;;;;5066852;28;20024;-47
2023/02/23 10:42:57;;;;;;;9.35;7.32;;;26.30;62.60;;;;;;5067401;28;20047;-46
2023/02/23 10:45:26;;;;;;;12.15;7.28;;;26.30;62.60;;;;;;5066860;28;20108;-50
2023/02/23 10:48:13;;;;;;;12.68;7.38;;;26.30;62.50;;;;;;5067242;28;20100;-49
2023/02/23 10:50:44;;;;;;;15.63;6.78;;;26.30;62.60;;;;;;5067453;28;20306;-46
2023/02/23 10:53:26;;;;;;;11.70;7.28;;;26.30;62.60;;;;;;5066695;28;20033;-45
2023/02/23 10:56:06;;;;;;;15.30;7.28;;;26.30;62.80;;;;;;5066619;28;20028;-51
2023/02/23 10:58:43;;;;;;;16.30;7.70;;;26.30;62.80;;;;;;5069977;28;20024;-53
2023/02/23 11:01:10;;;;;;;16.42;7.35;;;26.30;63.20;;;;;;5085892;28;20327;-52
2023/02/23 11:03:45;;;;;;;11.93;7.47;;;26.30;63.30;;;;;;5086081;28;20036;-48
2023/02/23 11:06:32;;;;;;;19.25;7.85;;;26.20;63.70;;;;;;5086622;28;20052;-48
2023/02/23 11:09:15;;;;;;;18.67;8.40;;;26.30;64.00;;;;;;5085668;28;20037;-47
2023/02/23 11:12:21;;;;;;;28.40;12.77;;;26.30;64.10;;;;;;5084780;28;20032;-51
2023/02/23 11:14:52;;;;;;;26.33;13.13;;;26.30;64.40;;;;;;5040552;28;20210;-57
2023/02/23 11:17:38;;;;;;;31.55;14.45;;;26.30;64.70;;;;;;5083217;28;20055;-50
2023/02/23 11:20:22;;;;;;;52.17;18.45;;;26.20;65.50;;;;;;5086201;28;20216;-51
2023/02/23 11:22:51;;;;;;;42.78;15.02;;;26.20;66.30;;;;;;5086632;28;20309;-54
2023/02/23 11:25:28;;;;;;;47.17;15.80;;;26.20;65.80;;;;;;5086050;28;20035;-47
2023/02/23 11:27:56;;;;;;;31.92;14.65;;;26.20;66.50;;;;;;5086625;28;20051;-51
2023/02/23 11:30:28;;;;;;;21.55;10.27;;;26.20;66.70;;;;;;5086126;28;20039;-53
2023/02/23 11:33:08;;;;;;;23.65;10.38;;;26.20;67.00;;;;;;5086446;28;20044;-52
2023/02/23 11:35:35;;;;;;;26.80;10.32;;;25.90;67.90;;;;;;5085268;28;20032;-57
2023/02/23 11:38:20;;;;;;;15.32;9.15;;;25.90;68.00;;;;;;5078715;28;20246;-58
2023/02/23 11:41:23;;;;;;;16.27;8.68;;;25.90;68.10;;;;;;5085982;28;20020;-52
2023/02/23 11:43:50;;;;;;;;;;;26.00;68.20;;;;;;5086351;28;20025;-52
2023/02/23 11:46:22;;;;;;;15.20;9.30;;;26.00;68.00;;;;;;5085894;28;19952;-57
2023/02/23 11:48:52;;;;;;;14.32;8.85;;;26.00;68.20;;;;;;5085585;28;20320;-51
2023/02/23 11:51:40;;;;;;;12.10;8.48;;;26.00;68.40;;;;;;5085899;28;20366;-55
2023/02/23 11:54:19;;;;;;;14.35;9.10;;;26.00;68.00;;;;;;5085215;28;20008;-52
2023/02/23 11:56:53;;;;;;;15.15;9.20;;;26.10;67.80;;;;;;5085693;28;20047;-61
2023/02/23 11:59:29;;;;;;;17.80;8.93;;;26.10;67.50;;;;;;5085594;28;20036;-53
2023/02/23 12:02:04;;;;;;;12.70;8.75;;;26.10;67.30;;;;;;5085697;28;20043;-52
2023/02/23 12:04:39;;;;;;;15.00;8.95;;;26.20;67.50;;;;;;5085464;28;20019;-57
2023/02/23 12:07:37;;;;;;;14.00;9.30;;;26.20;68.00;;;;;;5085603;28;20041;-61
2023/02/23 12:10:33;;;;;;;15.13;9.50;;;26.30;67.50;;;;;;5085272;28;20016;-60
2023/02/23 12:13:07;;;;;;;17.95;10.35;;;26.30;67.50;;;;;;5084777;28;20044;-53
2023/02/23 12:16:01;;;;;;;19.70;9.80;;;26.30;67.70;;;;;;5084808;28;20027;-58
2023/02/23 12:18:46;;;;;;;15.98;9.98;;;26.40;67.70;;;;;;5085356;28;20036;-52
2023/02/23 12:21:29;;;;;;;16.73;10.23;;;26.50;67.90;;;;;;5085205;28;20047;-59
2023/02/23 12:24:17;;;;;;;15.93;10.75;;;26.50;67.80;;;;;;5085026;28;20220;-54
2023/02/23 12:40:36;;;;;;;16.80;12.27;;;26.60;68.10;;;;;;5100942;27;20434;-56
2023/02/23 12:43:24;;;;;;;17.70;11.60;;;27.00;69.00;;;;;;5098293;28;20094;-54
2023/02/23 12:45:53;;;;;;;20.30;12.03;;;26.90;69.10;;;;;;5101399;28;20280;-55
2023/02/23 12:48:36;;;;;;;20.70;11.55;;;27.00;69.40;;;;;;5101198;28;20049;-56
2023/02/23 12:51:17;;;;;;;24.20;12.20;;;27.00;69.70;;;;;;5101428;28;20062;-56
2023/02/23 12:53:45;;;;;;;19.95;11.95;;;27.00;69.80;;;;;;5101740;28;20036;-46
2023/02/23 12:56:18;;;;;;;20.20;11.57;;;27.00;69.70;;;;;;5101080;28;20023;-44
2023/02/23 12:59:05;;;;;;;18.25;11.75;;;27.10;70.00;;;;;;5100006;28;20070;-47
2023/02/23 13:02:10;;;;;;;17.55;11.25;;;27.10;70.00;;;;;;5101053;28;20016;-46
2023/02/23 13:04:54;;;;;;;17.90;11.48;;;27.20;70.00;;;;;;5099793;28;20071;-46
2023/02/23 13:07:33;;;;;;;20.20;11.77;;;27.20;70.10;;;;;;5100630;28;20012;-46
2023/02/23 13:10:23;;;;;;;16.23;11.55;;;27.20;70.10;;;;;;5100788;28;20028;-43
2023/02/23 13:13:01;;;;;;;18.20;12.10;;;27.20;70.50;;;;;;5100956;28;20024;-48
2023/02/23 13:15:37;;;;;;;18.20;11.85;;;27.20;70.40;;;;;;5100693;28;20036;-44
2023/02/23 13:18:13;;;;;;;29.30;12.73;;;27.30;70.60;;;;;;5101191;28;20035;-44
2023/02/23 13:20:57;;;;;;;22.77;12.43;;;27.30;70.50;;;;;;5100624;28;20033;-44
2023/02/23 13:23:35;;;;;;;24.58;12.90;;;27.30;70.50;;;;;;5100824;28;20024;-48
2023/02/23 13:26:24;;;;;;;22.98;13.02;;;27.30;70.60;;;;;;5100785;28;20243;-47
2023/02/23 13:40:49;;;;;;;17.73;12.20;;;27.40;69.90;;;;;;5101060;27;20393;-51
2023/02/23 13:43:33;;;;;;;18.83;11.50;;;27.70;69.80;;;;;;5101538;28;20032;-54
2023/02/23 13:46:30;;;;;;;18.73;11.48;;;27.70;69.90;;;;;;5101165;28;20330;-56
2023/02/23 13:49:05;;;;;;;19.48;11.80;;;27.70;69.90;;;;;;5101386;28;20066;-54
2023/02/23 13:51:34;;;;;;;15.45;11.00;;;27.80;69.80;;;;;;5101296;28;20016;-57
2023/02/23 13:54:21;;;;;;;18.77;11.07;;;27.80;69.80;;;;;;5101438;28;20032;-48
2023/02/23 13:56:55;;;;;;;15.93;11.15;;;27.80;70.10;;;;;;5101035;28;20009;-50
2023/02/23 13:59:28;;;;;;;15.07;11.00;;;27.80;70.00;;;;;;5101299;28;20070;-53
2023/02/23 14:01:55;;;;;;;15.82;10.95;;;27.80;70.00;;;;;;5101194;28;20043;-60
2023/02/23 14:04:26;;;;;;;14.27;10.73;;;27.80;69.80;;;;;;5101247;28;20099;-56
2023/02/23 14:07:23;;;;;;;13.45;10.50;;;27.80;69.70;;;;;;5100725;28;20067;-53
2023/02/23 14:10:08;;;;;;;14.32;10.60;;;27.80;69.70;;;;;;5101015;28;20208;-56
2023/02/23 14:12:59;;;;;;;12.25;9.90;;;27.90;69.70;;;;;;5100624;28;20042;-51
2023/02/23 14:15:29;;;;;;;14.43;10.45;;;27.80;69.70;;;;;;5100443;28;20324;-55
2023/02/23 14:18:02;;;;;;;12.23;9.90;;;27.80;69.70;;;;;;5100709;28;20028;-53
2023/02/23 14:20:58;;;;;;;13.52;10.20;;;27.90;69.60;;;;;;5100664;28;20063;-57
2023/02/23 14:23:25;;;;;;;12.02;9.75;;;27.90;69.60;;;;;;5069418;28;20090;-55
2023/02/23 14:26:16;;;;;;;13.85;9.75;;;27.90;70.20;;;;;;5100623;28;20235;-54
2023/02/23 14:28:48;;;;;;;11.30;9.07;;;28.00;69.60;;;;;;5100423;28;20036;-53
2023/02/23 14:31:20;;;;;;;14.93;9.10;;;28.00;69.60;;;;;;5100224;28;20028;-51
2023/02/23 14:33:48;;;;;;;12.65;8.68;;;28.00;69.60;;;;;;5100641;28;20059;-51
2023/02/23 14:36:21;;;;;;;12.25;8.77;;;28.00;69.50;;;;;;5100236;28;20188;-52
2023/02/23 14:38:59;;;;;;;10.95;9.13;;;28.00;69.40;;;;;;5100027;28;20048;-50
2023/02/23 14:41:53;;;;;;;10.00;8.30;;;28.10;69.50;;;;;;5086943;28;20043;-52
2023/02/23 14:44:42;;;;;;;12.38;8.52;;;28.10;69.40;;;;;;5086874;28;20051;-51
2023/02/23 14:47:14;;;;;;;10.00;8.63;;;28.10;69.40;;;;;;5086422;28;20094;-54
2023/02/23 14:49:51;;;;;;;10.10;8.52;;;28.20;69.50;;;;;;5086899;28;20031;-53
2023/02/23 14:52:40;;;;;;;9.60;8.45;;;28.10;69.40;;;;;;5086350;28;20251;-56
2023/02/23 14:55:12;;;;;;;11.50;8.32;;;28.20;69.40;;;;;;5086367;28;20351;-55
2023/02/23 14:57:41;;;;;;;10.95;8.02;;;28.20;69.30;;;;;;5086183;28;20037;-54